Time;durP1;ratioP1;P1;durP2;ratioP2;P2;SDS_P1;SDS_P2;PMS_P1;PMS_P2;Temp;Humidity;BMP_temperature;BMP_pressure;BME280_temperature;BME280_humidity;BME280_pressure;Samples;Min_cycle;Max_cycle;Signal;HPM_P1;HPM_P2
2022/03/16 00:01:14;;;;;;;40.22;26.55;;;6.50;99.90;;;;;;5033660;28;20078;-56
2022/03/16 00:03:39;;;;;;;50.47;31.77;;;6.40;99.90;;;;;;5033240;28;20052;-56
2022/03/16 00:06:05;;;;;;;45.03;31.13;;;6.40;99.90;;;;;;5015403;28;20052;-55
2022/03/16 00:08:31;;;;;;;44.33;28.85;;;6.40;99.90;;;;;;5033349;28;21337;-55
2022/03/16 00:11:00;;;;;;;45.67;31.45;;;6.40;99.90;;;;;;5037524;28;20124;-55
2022/03/16 00:13:26;;;;;;;45.92;28.90;;;6.40;99.90;;;;;;5039800;28;20874;-56
2022/03/16 00:15:52;;;;;;;43.65;29.88;;;6.40;99.90;;;;;;5033951;28;20060;-55
2022/03/16 00:18:20;;;;;;;48.90;31.58;;;6.40;99.90;;;;;;5034693;28;20452;-54
2022/03/16 00:20:47;;;;;;;46.88;30.48;;;6.40;99.90;;;;;;5030561;28;20517;-56
2022/03/16 00:23:16;;;;;;;40.10;25.02;;;6.40;99.90;;;;;;5015167;28;20063;-55
2022/03/16 00:25:42;;;;;;;37.28;24.65;;;6.50;99.90;;;;;;5014393;28;20042;-54
2022/03/16 00:28:09;;;;;;;47.22;29.75;;;6.30;99.90;;;;;;5023821;28;20051;-53
2022/03/16 00:30:37;;;;;;;45.67;29.45;;;6.40;99.90;;;;;;5052493;28;20037;-56
2022/03/16 00:33:03;;;;;;;48.97;30.90;;;6.30;99.90;;;;;;5037216;28;20048;-54
2022/03/16 00:35:29;;;;;;;41.92;28.27;;;6.30;99.90;;;;;;5038333;28;21797;-57
2022/03/16 00:37:54;;;;;;;49.08;30.75;;;6.30;99.90;;;;;;5053563;28;20064;-57
2022/03/16 00:40:20;;;;;;;44.78;31.23;;;6.20;99.90;;;;;;5014724;28;21003;-56
2022/03/16 00:42:46;;;;;;;43.25;28.23;;;6.10;99.90;;;;;;5003865;28;20048;-54
2022/03/16 00:45:12;;;;;;;37.20;25.35;;;6.10;99.90;;;;;;5041270;28;20548;-57
2022/03/16 00:47:37;;;;;;;31.27;21.50;;;6.10;99.90;;;;;;5055260;28;20535;-57
2022/03/16 00:50:04;;;;;;;41.38;26.52;;;6.00;99.90;;;;;;5049989;28;20523;-56
2022/03/16 00:52:29;;;;;;;36.58;24.65;;;6.00;99.90;;;;;;5049501;28;20106;-56
2022/03/16 00:54:55;;;;;;;42.60;26.10;;;5.90;99.90;;;;;;5024067;28;20066;-55
2022/03/16 00:57:21;;;;;;;33.92;21.92;;;5.90;99.90;;;;;;5037259;28;20036;-56
2022/03/16 00:59:47;;;;;;;34.85;24.60;;;5.80;99.90;;;;;;5034027;28;20117;-55
2022/03/16 01:02:12;;;;;;;32.92;23.25;;;5.80;99.90;;;;;;5031230;28;20392;-55
2022/03/16 01:04:38;;;;;;;35.92;22.63;;;5.80;99.90;;;;;;5040149;28;20403;-57
2022/03/16 01:07:05;;;;;;;33.45;21.98;;;5.70;99.90;;;;;;5021182;28;20094;-56
2022/03/16 01:09:31;;;;;;;29.33;21.98;;;5.70;99.90;;;;;;5030218;28;20056;-55
2022/03/16 01:11:56;;;;;;;31.13;21.00;;;5.60;99.90;;;;;;5029681;28;20037;-57
2022/03/16 01:14:22;;;;;;;29.75;20.17;;;5.60;99.90;;;;;;5029794;28;20463;-55
2022/03/16 01:16:48;;;;;;;30.35;19.67;;;5.60;99.90;;;;;;5038802;28;20494;-57
2022/03/16 01:19:14;;;;;;;27.13;18.13;;;5.50;99.90;;;;;;5017886;28;20048;-54
2022/03/16 01:21:41;;;;;;;23.65;16.88;;;5.40;99.90;;;;;;5024705;28;20052;-54
2022/03/16 01:24:08;;;;;;;23.75;17.48;;;5.30;99.90;;;;;;5039110;28;20068;-57
2022/03/16 01:26:34;;;;;;;24.92;17.45;;;5.30;99.90;;;;;;5033979;28;20497;-56
2022/03/16 01:29:01;;;;;;;23.40;17.15;;;5.20;99.90;;;;;;5028061;28;20107;-57
2022/03/16 01:31:27;;;;;;;34.13;23.52;;;5.20;99.90;;;;;;5029601;28;20040;-57
2022/03/16 01:33:53;;;;;;;38.50;24.70;;;5.20;99.90;;;;;;5019466;28;20037;-57
2022/03/16 01:36:18;;;;;;;29.13;20.55;;;5.20;99.90;;;;;;5055230;28;20044;-56
2022/03/16 01:38:44;;;;;;;31.13;21.77;;;5.30;99.90;;;;;;5037548;28;20420;-57
2022/03/16 01:41:10;;;;;;;36.08;24.63;;;5.30;99.90;;;;;;5037228;28;20059;-55
2022/03/16 01:43:36;;;;;;;41.22;26.40;;;5.30;99.90;;;;;;5050495;28;20055;-57
2022/03/16 01:46:02;;;;;;;34.65;24.50;;;5.30;99.90;;;;;;5053599;28;20484;-56
2022/03/16 01:48:28;;;;;;;41.55;27.77;;;5.30;99.90;;;;;;5025384;28;20048;-56
2022/03/16 01:50:54;;;;;;;39.95;25.38;;;5.40;99.90;;;;;;5036261;28;20102;-57
2022/03/16 01:53:20;;;;;;;55.88;33.67;;;5.40;99.90;;;;;;5034445;28;20578;-55
2022/03/16 01:55:47;;;;;;;37.78;25.98;;;5.40;99.90;;;;;;5020148;28;20195;-57
2022/03/16 01:58:13;;;;;;;42.58;26.30;;;5.40;99.90;;;;;;5042520;28;20088;-55
2022/03/16 02:00:40;;;;;;;69.03;37.70;;;5.40;99.90;;;;;;5020079;28;22540;-55
2022/03/16 02:03:07;;;;;;;48.10;28.88;;;5.40;99.90;;;;;;5032626;28;20055;-56
2022/03/16 02:05:33;;;;;;;67.10;36.75;;;5.50;99.90;;;;;;5041783;22;20107;-57
2022/03/16 02:07:59;;;;;;;49.13;30.88;;;5.50;99.90;;;;;;5003847;28;20045;-53
2022/03/16 02:10:25;;;;;;;46.92;30.15;;;5.50;99.90;;;;;;5009566;28;20048;-56
2022/03/16 02:12:52;;;;;;;44.55;30.13;;;5.50;99.90;;;;;;4982441;28;20063;-54
2022/03/16 02:15:19;;;;;;;44.08;29.85;;;5.40;99.90;;;;;;4955147;28;20075;-55
2022/03/16 02:17:45;;;;;;;32.58;21.80;;;5.40;99.90;;;;;;4984326;28;20052;-56
2022/03/16 02:20:11;;;;;;;35.30;23.02;;;5.40;99.90;;;;;;4983982;28;20807;-55
2022/03/16 02:22:50;;;;;;;39.45;25.13;;;5.30;99.90;;;;;;4959661;28;20053;-53
2022/03/16 02:25:16;;;;;;;34.53;24.15;;;5.20;99.90;;;;;;4963450;28;20685;-56
2022/03/16 02:27:42;;;;;;;37.50;25.02;;;5.20;99.90;;;;;;4973860;28;20044;-56
2022/03/16 02:30:08;;;;;;;32.25;22.20;;;5.20;99.90;;;;;;4988391;28;20107;-54
2022/03/16 02:32:34;;;;;;;41.53;28.10;;;5.10;99.90;;;;;;4985658;28;20496;-55
2022/03/16 02:35:00;;;;;;;43.28;27.02;;;5.10;99.90;;;;;;5007140;28;20048;-55
2022/03/16 02:37:26;;;;;;;52.95;31.13;;;5.20;99.90;;;;;;4992436;28;20045;-56
2022/03/16 02:39:52;;;;;;;47.47;30.83;;;5.20;99.90;;;;;;4995786;28;20488;-55
2022/03/16 02:42:17;;;;;;;46.92;31.75;;;5.20;99.90;;;;;;4986637;28;20057;-55
2022/03/16 02:44:43;;;;;;;46.17;31.10;;;5.20;99.90;;;;;;5005491;28;20361;-53
2022/03/16 02:47:09;;;;;;;37.70;26.35;;;5.20;99.90;;;;;;4984714;28;20033;-54
2022/03/16 02:49:35;;;;;;;43.03;28.15;;;5.10;99.90;;;;;;4964512;28;20092;-53
2022/03/16 02:52:09;;;;;;;46.38;30.10;;;5.10;99.90;;;;;;4994724;28;21009;-54
2022/03/16 02:54:35;;;;;;;46.97;30.20;;;5.10;99.90;;;;;;4978544;28;20054;-55
2022/03/16 02:57:01;;;;;;;37.35;24.35;;;5.10;99.90;;;;;;4971413;28;20061;-55
2022/03/16 02:59:27;;;;;;;52.17;33.47;;;5.10;99.90;;;;;;4981354;28;20103;-55
2022/03/16 03:01:53;;;;;;;41.92;28.83;;;5.10;99.90;;;;;;4998193;28;20472;-55
2022/03/16 03:04:19;;;;;;;50.97;30.98;;;5.20;99.90;;;;;;4983355;28;20042;-56
2022/03/16 03:06:45;;;;;;;47.92;29.08;;;5.20;99.90;;;;;;4979697;28;20137;-55
2022/03/16 03:09:12;;;;;;;47.63;31.45;;;5.20;99.90;;;;;;5001457;28;20050;-55
2022/03/16 03:11:38;;;;;;;50.13;33.17;;;5.20;99.90;;;;;;4992990;28;20097;-57
2022/03/16 03:14:03;;;;;;;55.65;35.17;;;5.20;99.90;;;;;;4954413;28;20042;-55
2022/03/16 03:16:29;;;;;;;67.25;38.95;;;5.20;99.90;;;;;;4980014;28;20045;-53
2022/03/16 03:18:55;;;;;;;62.65;39.50;;;5.20;99.90;;;;;;4990438;28;20140;-56
2022/03/16 03:21:20;;;;;;;52.72;34.33;;;5.10;99.90;;;;;;4983522;28;20104;-56
2022/03/16 03:23:46;;;;;;;59.05;37.40;;;5.20;99.90;;;;;;4988511;28;20042;-55
2022/03/16 03:26:12;;;;;;;72.28;38.83;;;5.10;99.90;;;;;;4976108;28;20042;-56
2022/03/16 03:28:37;;;;;;;53.65;33.42;;;5.20;99.90;;;;;;4981795;28;20041;-55
2022/03/16 03:31:03;;;;;;;60.80;37.10;;;5.20;99.90;;;;;;4996010;28;20042;-54
2022/03/16 03:33:30;;;;;;;63.83;37.55;;;5.30;99.90;;;;;;4966539;28;20076;-54
2022/03/16 03:35:56;;;;;;;60.75;37.55;;;5.20;99.90;;;;;;4960669;28;20552;-55
2022/03/16 03:38:21;;;;;;;65.65;39.17;;;5.20;99.90;;;;;;4981738;28;20120;-56
2022/03/16 03:40:47;;;;;;;87.88;45.15;;;5.20;99.90;;;;;;4971298;28;20144;-55
2022/03/16 03:43:13;;;;;;;50.97;32.60;;;5.20;99.90;;;;;;4986717;28;20084;-54
2022/03/16 03:45:39;;;;;;;75.70;42.65;;;5.20;99.90;;;;;;4986255;28;20481;-56
2022/03/16 03:48:04;;;;;;;73.55;41.22;;;5.20;99.90;;;;;;4984844;28;20054;-53
2022/03/16 03:50:30;;;;;;;69.70;37.60;;;5.20;99.90;;;;;;4983308;28;20044;-58
2022/03/16 03:52:56;;;;;;;63.90;38.63;;;5.20;99.90;;;;;;4988075;28;20053;-57
2022/03/16 03:55:23;;;;;;;67.32;38.83;;;5.20;99.90;;;;;;4976478;28;20046;-53
2022/03/16 03:57:49;;;;;;;67.15;39.88;;;5.10;99.90;;;;;;4983607;28;20636;-57
2022/03/16 04:00:15;;;;;;;63.45;39.20;;;5.20;99.90;;;;;;4986016;28;20038;-61
2022/03/16 04:02:50;;;;;;;57.53;34.55;;;5.10;99.90;;;;;;4982282;28;20279;-56
2022/03/16 04:05:20;;;;;;;61.25;38.45;;;5.00;99.90;;;;;;4995240;28;20050;-57
2022/03/16 04:07:48;;;;;;;59.03;35.00;;;5.00;99.90;;;;;;4979491;28;20053;-57
2022/03/16 04:10:14;;;;;;;58.22;35.25;;;5.00;99.90;;;;;;4945656;28;20073;-58
2022/03/16 04:12:40;;;;;;;55.60;34.90;;;5.00;99.90;;;;;;4943750;28;20054;-56
2022/03/16 04:15:06;;;;;;;56.35;36.42;;;5.10;99.90;;;;;;4980568;28;20057;-58
2022/03/16 04:17:32;;;;;;;70.07;38.17;;;5.10;99.90;;;;;;4970614;28;20133;-56
2022/03/16 04:19:58;;;;;;;79.07;41.80;;;5.10;99.90;;;;;;4966422;28;20056;-57
2022/03/16 04:22:28;;;;;;;73.78;42.63;;;5.00;99.90;;;;;;4960009;28;20460;-55
2022/03/16 04:24:54;;;;;;;56.72;36.80;;;4.80;99.90;;;;;;4964681;28;20048;-54
2022/03/16 04:27:21;;;;;;;58.38;37.75;;;5.00;99.90;;;;;;4943957;28;20041;-57
2022/03/16 04:29:47;;;;;;;55.60;35.33;;;5.00;99.90;;;;;;4965605;28;20054;-55
2022/03/16 04:32:13;;;;;;;50.97;32.10;;;5.00;99.90;;;;;;4942306;28;20038;-57
2022/03/16 04:34:38;;;;;;;47.50;30.25;;;4.90;99.90;;;;;;4977842;28;20505;-57
2022/03/16 04:37:04;;;;;;;47.60;30.85;;;4.90;99.90;;;;;;4963453;28;20042;-57
2022/03/16 04:39:31;;;;;;;74.32;42.90;;;4.90;99.90;;;;;;4965350;28;20034;-56
2022/03/16 04:41:57;;;;;;;69.43;40.88;;;4.90;99.90;;;;;;4948180;28;20119;-55
2022/03/16 04:44:23;;;;;;;82.72;43.00;;;4.90;99.90;;;;;;4972943;28;20551;-53
2022/03/16 04:46:49;;;;;;;82.70;47.17;;;4.90;99.90;;;;;;4977480;28;20049;-53
2022/03/16 04:49:14;;;;;;;97.32;49.90;;;4.90;99.90;;;;;;4976481;28;20042;-56
2022/03/16 04:51:40;;;;;;;74.13;43.63;;;4.90;99.90;;;;;;4968974;28;20073;-56
2022/03/16 04:54:10;;;;;;;56.22;33.97;;;4.80;99.90;;;;;;4953374;28;20156;-58
2022/03/16 04:56:36;;;;;;;60.40;35.60;;;4.80;99.90;;;;;;4991071;28;20046;-56
2022/03/16 04:59:03;;;;;;;88.93;46.22;;;4.80;99.90;;;;;;4976964;28;20061;-56
2022/03/16 05:01:30;;;;;;;56.15;34.08;;;4.80;99.90;;;;;;4997021;28;20046;-56
2022/03/16 05:03:56;;;;;;;81.47;45.33;;;4.80;99.90;;;;;;4984885;28;20207;-57
2022/03/16 05:06:21;;;;;;;95.43;46.90;;;4.80;99.90;;;;;;4969163;28;20658;-53
2022/03/16 05:08:47;;;;;;;66.35;37.45;;;4.80;99.90;;;;;;4977217;28;20046;-55
2022/03/16 05:11:17;;;;;;;80.68;44.45;;;4.80;99.90;;;;;;4995913;28;20193;-55
2022/03/16 05:13:44;;;;;;;62.10;37.30;;;4.90;99.90;;;;;;4999471;28;20407;-53
2022/03/16 05:16:09;;;;;;;98.45;50.47;;;4.80;99.90;;;;;;4973101;28;20045;-55
2022/03/16 05:18:35;;;;;;;64.10;40.63;;;4.90;99.90;;;;;;4975075;28;20076;-57
2022/03/16 05:21:03;;;;;;;58.45;37.10;;;4.90;99.90;;;;;;4969145;28;20042;-54
2022/03/16 05:23:30;;;;;;;77.78;42.78;;;4.90;99.90;;;;;;4978764;28;20100;-52
2022/03/16 05:25:56;;;;;;;56.33;36.85;;;5.00;99.90;;;;;;4962423;28;20049;-53
2022/03/16 05:28:22;;;;;;;51.00;32.42;;;5.00;99.90;;;;;;4975280;28;20342;-55
2022/03/16 05:30:48;;;;;;;62.25;38.15;;;5.00;99.90;;;;;;4958980;28;20409;-56
2022/03/16 05:33:13;;;;;;;54.85;35.75;;;5.00;99.90;;;;;;4970341;28;20073;-56
2022/03/16 05:35:41;;;;;;;72.78;41.28;;;5.10;99.90;;;;;;4943364;28;20050;-58
2022/03/16 05:38:08;;;;;;;58.65;36.88;;;5.10;99.90;;;;;;4959846;28;20046;-57
2022/03/16 05:40:34;;;;;;;79.90;45.78;;;5.10;99.90;;;;;;4976824;28;20677;-57
2022/03/16 05:43:00;;;;;;;55.13;37.00;;;5.10;99.90;;;;;;4963092;28;20034;-55
2022/03/16 05:45:26;;;;;;;64.25;40.72;;;5.10;99.90;;;;;;5000927;28;20041;-53
2022/03/16 05:47:52;;;;;;;50.20;32.95;;;5.10;99.90;;;;;;4986137;28;20034;-58
2022/03/16 05:50:18;;;;;;;72.28;42.47;;;5.20;99.90;;;;;;4971743;28;22097;-57
2022/03/16 05:52:46;;;;;;;55.45;35.72;;;5.20;99.90;;;;;;4988239;28;20084;-56
2022/03/16 05:55:13;;;;;;;67.57;40.50;;;5.20;99.90;;;;;;4971409;28;20049;-56
2022/03/16 05:57:44;;;;;;;55.42;35.50;;;5.20;99.90;;;;;;4977993;28;20049;-54
2022/03/16 06:00:14;;;;;;;47.08;30.45;;;5.20;99.90;;;;;;4978087;28;20041;-57
2022/03/16 06:02:41;;;;;;;58.72;34.53;;;5.30;99.90;;;;;;5001401;28;20038;-56
2022/03/16 06:05:08;;;;;;;57.38;36.35;;;5.40;99.90;;;;;;4974210;28;20372;-57
2022/03/16 06:07:33;;;;;;;68.93;42.88;;;5.30;99.90;;;;;;4973939;28;20064;-57
2022/03/16 06:10:00;;;;;;;64.97;38.65;;;5.30;99.90;;;;;;5006019;28;20497;-56
2022/03/16 06:12:26;;;;;;;56.42;36.55;;;5.30;99.90;;;;;;4969603;28;20497;-56
2022/03/16 06:14:52;;;;;;;64.45;35.42;;;5.30;99.90;;;;;;4987297;28;20565;-55
2022/03/16 06:17:17;;;;;;;53.50;34.03;;;5.30;99.90;;;;;;4975903;28;20268;-55
2022/03/16 06:19:43;;;;;;;46.17;32.03;;;5.30;99.90;;;;;;4992201;28;20038;-54
2022/03/16 06:22:09;;;;;;;54.00;36.60;;;5.30;99.90;;;;;;4988326;28;20366;-57
2022/03/16 06:24:34;;;;;;;56.53;35.13;;;5.30;99.90;;;;;;4984230;28;20516;-55
2022/03/16 06:27:00;;;;;;;46.70;29.58;;;5.40;99.90;;;;;;4988036;28;20088;-56
2022/03/16 06:29:26;;;;;;;55.13;32.92;;;5.40;99.90;;;;;;4982914;28;20589;-57
2022/03/16 06:31:51;;;;;;;63.97;39.08;;;5.40;99.90;;;;;;4972974;28;20371;-55
2022/03/16 06:34:17;;;;;;;58.97;35.95;;;5.40;99.90;;;;;;4974457;28;20575;-54
2022/03/16 06:36:43;;;;;;;61.13;38.47;;;5.40;99.90;;;;;;5004021;28;20140;-55
2022/03/16 06:39:09;;;;;;;61.53;37.70;;;5.30;99.90;;;;;;4984638;28;20064;-56
2022/03/16 06:41:34;;;;;;;58.28;35.25;;;5.30;99.90;;;;;;4983603;28;20394;-57
2022/03/16 06:44:00;;;;;;;59.42;37.42;;;5.30;99.90;;;;;;4987591;28;20045;-56
2022/03/16 06:46:27;;;;;;;60.45;37.97;;;5.30;99.90;;;;;;5003352;28;20615;-56
2022/03/16 06:48:53;;;;;;;63.22;38.55;;;5.30;99.90;;;;;;4971673;28;20918;-55
2022/03/16 06:51:19;;;;;;;53.83;35.67;;;5.40;99.90;;;;;;4983058;28;20037;-58
2022/03/16 06:53:44;;;;;;;61.45;37.78;;;5.40;99.90;;;;;;4988179;28;20488;-53
2022/03/16 06:56:10;;;;;;;56.83;36.83;;;5.50;99.90;;;;;;4986681;28;20053;-56
2022/03/16 06:58:36;;;;;;;54.38;38.33;;;5.50;99.90;;;;;;4975168;28;20057;-56
2022/03/16 07:01:02;;;;;;;69.95;42.00;;;5.60;99.90;;;;;;4978119;28;20057;-57
2022/03/16 07:03:28;;;;;;;54.60;36.22;;;5.60;99.90;;;;;;4987754;28;20042;-56
2022/03/16 07:05:53;;;;;;;62.28;38.53;;;5.60;99.90;;;;;;4961241;28;20092;-56
2022/03/16 07:08:19;;;;;;;50.67;34.28;;;5.70;99.90;;;;;;4987899;28;20049;-53
2022/03/16 07:10:45;;;;;;;59.47;38.78;;;5.70;99.90;;;;;;4984458;28;20589;-56
2022/03/16 07:13:13;;;;;;;60.67;40.72;;;5.80;99.90;;;;;;4985852;28;20049;-54
2022/03/16 07:15:41;;;;;;;51.53;33.50;;;5.80;99.90;;;;;;4982230;28;20121;-56
2022/03/16 07:18:07;;;;;;;59.22;39.17;;;5.90;99.90;;;;;;4981515;28;20505;-56
2022/03/16 07:20:33;;;;;;;57.05;39.05;;;5.90;99.90;;;;;;4978152;28;20042;-59
2022/03/16 07:23:03;;;;;;;58.30;40.72;;;6.00;99.90;;;;;;4992199;28;20439;-55
2022/03/16 07:25:29;;;;;;;50.78;36.33;;;6.10;99.90;;;;;;4968281;28;20564;-56
2022/03/16 07:27:55;;;;;;;55.67;36.75;;;6.10;99.90;;;;;;4939652;28;20242;-56
2022/03/16 07:30:20;;;;;;;55.40;39.40;;;6.20;99.90;;;;;;5005270;28;20041;-57
2022/03/16 07:32:46;;;;;;;57.40;38.13;;;6.20;99.90;;;;;;4965473;28;20049;-61
2022/03/16 07:35:12;;;;;;;57.50;38.38;;;6.30;99.90;;;;;;4939769;28;20132;-55
2022/03/16 07:37:39;;;;;;;58.13;42.58;;;6.40;99.90;;;;;;4985086;28;20045;-56
2022/03/16 07:40:06;;;;;;;55.60;39.80;;;6.40;99.90;;;;;;4967704;28;20069;-56
2022/03/16 07:42:32;;;;;;;55.45;41.17;;;6.40;99.90;;;;;;4972468;28;20532;-54
2022/03/16 07:44:58;;;;;;;61.08;41.55;;;6.50;99.90;;;;;;4986775;28;20540;-57
2022/03/16 07:47:25;;;;;;;59.65;42.50;;;6.60;99.90;;;;;;5004982;28;20060;-61
2022/03/16 07:49:56;;;;;;;56.55;40.53;;;6.60;99.90;;;;;;4943090;28;20045;-56
2022/03/16 07:52:23;;;;;;;62.45;41.97;;;6.70;99.90;;;;;;4987797;28;20530;-56
2022/03/16 07:54:49;;;;;;;53.60;38.00;;;6.80;99.90;;;;;;4982832;28;20468;-56
2022/03/16 07:57:16;;;;;;;57.85;41.08;;;6.80;99.90;;;;;;4987222;28;20045;-55
2022/03/16 07:59:42;;;;;;;60.70;44.65;;;6.90;99.90;;;;;;4987140;28;20416;-57
2022/03/16 08:02:08;;;;;;;57.15;41.13;;;7.10;99.90;;;;;;4967270;28;20129;-60
2022/03/16 08:04:34;;;;;;;54.42;39.10;;;7.20;99.90;;;;;;4990522;28;20128;-56
2022/03/16 08:06:59;;;;;;;55.03;39.88;;;7.30;99.90;;;;;;4995459;28;20052;-58
2022/03/16 13:14:44;;;;;;;12.43;9.90;;;16.60;69.10;;;;;;5076485;27;20485;-53
2022/03/16 13:17:13;;;;;;;18.20;13.45;;;16.40;65.80;;;;;;5068206;28;20045;-56
2022/03/16 13:19:40;;;;;;;13.60;9.82;;;16.30;67.60;;;;;;5086675;28;20040;-54
2022/03/16 13:22:10;;;;;;;12.88;10.20;;;16.10;68.00;;;;;;5077409;28;20036;-57
2022/03/16 13:24:49;;;;;;;14.60;9.95;;;15.90;69.20;;;;;;5062444;28;20032;-54
2022/03/16 13:27:17;;;;;;;14.32;10.35;;;15.50;69.00;;;;;;5066270;28;20120;-52
2022/03/16 13:29:51;;;;;;;17.60;10.85;;;15.50;70.60;;;;;;5097831;22;20034;-59
2022/03/16 13:32:19;;;;;;;14.88;10.65;;;15.30;71.80;;;;;;5046944;28;20110;-60
2022/03/16 13:34:49;;;;;;;17.17;12.05;;;15.20;72.40;;;;;;5033383;28;20037;-60
2022/03/16 13:37:29;;;;;;;18.17;12.23;;;15.30;70.30;;;;;;5045429;28;20041;-60
2022/03/16 13:40:11;;;;;;;16.88;11.20;;;15.60;72.10;;;;;;5045957;28;20087;-60
2022/03/16 13:42:39;;;;;;;18.88;12.45;;;15.90;71.90;;;;;;5045250;28;20034;-59
2022/03/16 13:45:20;;;;;;;16.35;11.57;;;16.00;70.30;;;;;;5046688;28;20110;-59
2022/03/16 13:48:05;;;;;;;18.13;12.77;;;15.70;70.20;;;;;;5045314;28;20116;-59
2022/03/16 13:50:31;;;;;;;19.73;11.82;;;15.60;71.80;;;;;;5042603;28;20492;-60
2022/03/16 13:53:14;;;;;;;15.15;11.65;;;15.50;71.20;;;;;;5025668;28;20076;-58
2022/03/16 13:55:40;;;;;;;18.15;12.93;;;15.50;71.40;;;;;;5047238;28;20124;-59
2022/03/16 13:58:12;;;;;;;15.65;11.57;;;15.50;73.00;;;;;;5047073;28;20037;-62
2022/03/16 14:00:44;;;;;;;18.85;12.30;;;15.50;73.60;;;;;;5046810;28;20051;-60
2022/03/16 14:03:11;;;;;;;16.92;12.70;;;15.60;73.60;;;;;;5046521;28;20048;-60
2022/03/16 14:05:39;;;;;;;19.00;12.85;;;15.50;73.20;;;;;;5045407;28;20041;-59
2022/03/16 14:08:11;;;;;;;18.38;13.05;;;15.30;72.80;;;;;;5046451;28;20041;-60
2022/03/16 14:10:40;;;;;;;15.82;12.35;;;15.30;73.30;;;;;;5045462;28;20031;-61
2022/03/16 14:13:08;;;;;;;18.58;12.85;;;15.20;73.60;;;;;;5046553;28;20105;-60
2022/03/16 14:15:34;;;;;;;18.20;13.23;;;15.10;72.80;;;;;;5015739;28;20041;-58
2022/03/16 14:18:13;;;;;;;18.40;13.73;;;15.00;74.20;;;;;;5033188;28;20235;-60
2022/03/16 14:20:44;;;;;;;17.00;12.95;;;14.80;73.90;;;;;;5031569;28;20045;-62
2022/03/16 14:23:10;;;;;;;20.75;13.00;;;14.80;74.30;;;;;;5033165;28;20081;-60
2022/03/16 14:25:38;;;;;;;19.45;13.73;;;14.70;74.90;;;;;;5031983;28;20049;-60
2022/03/16 14:28:09;;;;;;;18.25;12.95;;;14.70;75.80;;;;;;5033164;28;20454;-59
2022/03/16 14:30:48;;;;;;;17.33;12.30;;;14.70;74.90;;;;;;5031750;28;20076;-60
2022/03/16 14:33:16;;;;;;;19.40;12.85;;;14.50;73.70;;;;;;5032677;28;20045;-59
2022/03/16 14:35:42;;;;;;;19.83;12.95;;;14.50;73.70;;;;;;5032817;28;20099;-59
2022/03/16 14:38:09;;;;;;;17.80;13.80;;;14.40;73.10;;;;;;5032536;28;20449;-60
2022/03/16 14:40:38;;;;;;;16.85;12.80;;;14.40;73.40;;;;;;5031803;28;20524;-60
2022/03/16 14:43:05;;;;;;;19.05;12.85;;;14.40;74.40;;;;;;5014871;28;20045;-65
2022/03/16 14:45:31;;;;;;;20.73;13.45;;;14.40;74.80;;;;;;5031193;28;20179;-60
2022/03/16 14:47:59;;;;;;;16.08;12.65;;;14.40;74.90;;;;;;5032975;28;20087;-60
2022/03/16 14:50:29;;;;;;;16.98;13.00;;;14.40;74.80;;;;;;5031071;28;20087;-59
2022/03/16 14:53:04;;;;;;;16.92;12.73;;;14.30;74.30;;;;;;5031301;28;20053;-60
2022/03/16 14:55:31;;;;;;;18.05;13.20;;;14.30;73.90;;;;;;5032706;28;20072;-64
2022/03/16 14:57:58;;;;;;;17.02;12.20;;;14.30;74.40;;;;;;5031076;28;20053;-60
2022/03/16 15:00:25;;;;;;;17.33;13.32;;;14.30;74.50;;;;;;5031904;28;20076;-58
2022/03/16 15:02:52;;;;;;;19.40;13.52;;;14.30;74.90;;;;;;5031884;28;20053;-59
2022/03/16 15:05:19;;;;;;;20.30;14.30;;;14.20;75.00;;;;;;5030363;28;20444;-60
2022/03/16 15:07:45;;;;;;;22.70;15.05;;;14.20;75.50;;;;;;5032280;28;20037;-59
2022/03/16 15:10:13;;;;;;;18.70;13.77;;;14.30;76.20;;;;;;5032080;28;20398;-62
2022/03/16 15:12:40;;;;;;;17.08;13.18;;;14.30;76.60;;;;;;5032112;28;20099;-61
2022/03/16 15:15:07;;;;;;;19.08;13.25;;;14.30;76.20;;;;;;5022269;28;20557;-61
2022/03/16 15:17:33;;;;;;;20.67;13.80;;;14.20;75.60;;;;;;5014262;28;20107;-61
2022/03/16 15:20:02;;;;;;;18.98;12.30;;;14.20;76.40;;;;;;5032507;28;20056;-61
2022/03/16 15:22:28;;;;;;;21.25;14.00;;;14.20;76.40;;;;;;5026408;28;20052;-64
2022/03/16 15:24:55;;;;;;;18.02;13.73;;;14.20;76.70;;;;;;5014235;28;20034;-63
2022/03/16 15:27:20;;;;;;;19.17;13.35;;;14.20;77.20;;;;;;5026738;28;20033;-61
2022/03/16 15:29:46;;;;;;;18.75;13.38;;;14.20;76.50;;;;;;5049991;28;20132;-61
2022/03/16 15:32:13;;;;;;;18.88;13.68;;;14.10;76.50;;;;;;5032092;28;20049;-59
2022/03/16 15:34:44;;;;;;;17.30;13.52;;;14.10;76.90;;;;;;5031954;28;20076;-60
2022/03/16 15:37:11;;;;;;;19.02;14.20;;;14.10;77.00;;;;;;5030812;28;20041;-65
2022/03/16 15:39:39;;;;;;;18.00;13.65;;;14.00;77.20;;;;;;5030257;28;20096;-60
2022/03/16 15:44:52;;;;;;;20.00;15.25;;;13.90;77.00;;;;;;5031101;28;20041;-60
2022/03/16 15:47:18;;;;;;;21.42;15.13;;;13.80;77.90;;;;;;5035034;28;20037;-64
2022/03/16 15:49:47;;;;;;;19.63;13.73;;;13.80;77.60;;;;;;5031349;28;20049;-61
2022/03/16 15:52:13;;;;;;;21.52;15.40;;;13.70;76.40;;;;;;5030192;28;20033;-60
2022/03/16 15:54:41;;;;;;;19.42;14.02;;;13.70;77.20;;;;;;5031443;28;20665;-60
2022/03/16 15:57:08;;;;;;;20.77;14.52;;;13.70;77.60;;;;;;5029116;28;20049;-61
2022/03/16 15:59:34;;;;;;;21.33;14.38;;;13.70;77.00;;;;;;5029469;28;20050;-59
2022/03/16 16:02:05;;;;;;;19.27;14.45;;;13.70;77.60;;;;;;5030915;28;20163;-62
2022/03/16 16:04:32;;;;;;;18.65;14.18;;;13.70;78.10;;;;;;5029627;28;20477;-59
2022/03/16 16:06:59;;;;;;;20.85;14.68;;;13.60;77.90;;;;;;5027982;28;20389;-60
2022/03/16 16:09:27;;;;;;;19.05;14.20;;;13.60;78.10;;;;;;5029839;28;20042;-59
2022/03/16 16:11:54;;;;;;;24.17;15.45;;;13.60;78.60;;;;;;5034243;28;20030;-59
2022/03/16 16:14:21;;;;;;;23.88;15.60;;;13.50;78.80;;;;;;5034219;28;20121;-65
2022/03/16 16:16:46;;;;;;;21.40;15.70;;;13.50;79.00;;;;;;5028425;28;20037;-57
2022/03/16 16:19:13;;;;;;;21.92;15.25;;;13.50;78.90;;;;;;5030231;28;20540;-61
2022/03/16 16:21:39;;;;;;;20.90;15.27;;;13.50;79.10;;;;;;5030843;28;20036;-59
2022/03/16 16:24:05;;;;;;;23.45;16.10;;;13.40;79.20;;;;;;5029172;28;20703;-58
2022/03/16 16:26:37;;;;;;;22.08;16.45;;;13.40;79.20;;;;;;5029284;28;20041;-60
2022/03/16 16:29:06;;;;;;;21.63;15.77;;;13.40;79.80;;;;;;5030881;28;20037;-62
2022/03/16 16:31:33;;;;;;;24.00;16.30;;;13.30;80.20;;;;;;5026978;28;20254;-59
2022/03/16 16:33:58;;;;;;;22.50;16.15;;;13.30;80.50;;;;;;5002149;28;20038;-60
2022/03/16 16:36:24;;;;;;;23.88;16.92;;;13.30;80.50;;;;;;5030371;28;20038;-61
2022/03/16 16:38:50;;;;;;;23.92;17.05;;;13.30;81.10;;;;;;5031197;28;20056;-60
2022/03/16 16:41:15;;;;;;;22.98;16.27;;;13.30;81.70;;;;;;5029499;28;20045;-59
2022/03/16 16:43:41;;;;;;;25.15;17.65;;;13.20;82.20;;;;;;5028898;28;20464;-63
2022/03/16 16:46:13;;;;;;;23.83;17.88;;;13.20;82.80;;;;;;5055927;28;20049;-60
2022/03/16 16:48:43;;;;;;;28.83;19.27;;;13.10;83.20;;;;;;5030886;28;20389;-60
2022/03/16 16:51:14;;;;;;;25.05;17.42;;;13.10;83.60;;;;;;5030347;28;20037;-60
2022/03/16 16:53:40;;;;;;;28.55;19.58;;;13.00;84.10;;;;;;5030284;28;20172;-60
2022/03/16 16:56:08;;;;;;;28.40;20.17;;;12.90;84.30;;;;;;5046112;28;20228;-62
2022/03/16 16:58:36;;;;;;;28.08;19.42;;;12.90;84.70;;;;;;5030237;28;20139;-60
2022/03/16 17:01:02;;;;;;;29.55;20.65;;;12.80;84.90;;;;;;5030361;28;20045;-59
2022/03/16 17:03:29;;;;;;;27.95;20.02;;;12.80;85.30;;;;;;5030321;28;20107;-60
2022/03/16 17:05:56;;;;;;;26.50;20.75;;;12.70;85.40;;;;;;5026617;28;20394;-59
2022/03/16 17:08:23;;;;;;;26.00;18.13;;;12.70;85.30;;;;;;5026851;28;20045;-64
2022/03/16 17:10:50;;;;;;;28.15;18.83;;;12.70;85.50;;;;;;5029734;28;20033;-60
2022/03/16 17:13:16;;;;;;;25.40;18.10;;;12.70;85.40;;;;;;5029985;28;20041;-60
2022/03/16 17:15:45;;;;;;;26.08;17.95;;;12.60;85.60;;;;;;5030066;28;20052;-61
2022/03/16 17:18:16;;;;;;;23.75;18.10;;;12.60;85.00;;;;;;4998445;28;20404;-59
2022/03/16 17:20:43;;;;;;;22.77;16.85;;;12.60;85.00;;;;;;5016019;28;20397;-57
2022/03/16 17:23:10;;;;;;;27.38;19.05;;;12.60;84.90;;;;;;5029943;28;20496;-59
2022/03/16 17:25:37;;;;;;;25.15;16.75;;;12.60;85.00;;;;;;5048382;28;20041;-58
2022/03/16 17:28:05;;;;;;;25.08;17.23;;;12.60;85.00;;;;;;5048125;28;20040;-59
2022/03/16 17:30:32;;;;;;;25.95;18.48;;;12.60;85.00;;;;;;5029544;28;20069;-59
2022/03/16 17:32:59;;;;;;;25.30;17.70;;;12.50;85.20;;;;;;5030618;28;20276;-60
2022/03/16 17:35:32;;;;;;;26.05;17.63;;;12.50;85.20;;;;;;5030260;28;20053;-60
2022/03/16 17:37:58;;;;;;;27.10;18.02;;;12.40;85.30;;;;;;5029512;28;20038;-60
2022/03/16 17:40:24;;;;;;;25.17;16.83;;;12.40;85.10;;;;;;5028523;28;20095;-60